sensor_id;sensor_type;location;lat;lon;timestamp;P1;durP1;ratioP1;P2;durP2;ratioP2
317;SDS011;146;53.448;10.228;2024-01-30T00:02:31;10.20;;;9.40;;
317;SDS011;146;53.448;10.228;2024-01-30T00:05:20;10.67;;;9.77;;
317;SDS011;146;53.448;10.228;2024-01-30T00:08:10;10.03;;;9.07;;
317;SDS011;146;53.448;10.228;2024-01-30T00:10:57;10.20;;;9.30;;
317;SDS011;146;53.448;10.228;2024-01-30T00:13:47;10.80;;;9.87;;
317;SDS011;146;53.448;10.228;2024-01-30T00:16:34;10.10;;;9.20;;
317;SDS011;146;53.448;10.228;2024-01-30T00:19:24;9.73;;;8.93;;
317;SDS011;146;53.448;10.228;2024-01-30T00:22:15;10.23;;;9.33;;
317;SDS011;146;53.448;10.228;2024-01-30T00:25:04;10.53;;;9.63;;
317;SDS011;146;53.448;10.228;2024-01-30T00:27:58;10.87;;;9.87;;
317;SDS011;146;53.448;10.228;2024-01-30T00:30:45;9.70;;;8.93;;
317;SDS011;146;53.448;10.228;2024-01-30T00:33:38;9.90;;;9.10;;
317;SDS011;146;53.448;10.228;2024-01-30T00:36:41;10.47;;;9.57;;
317;SDS011;146;53.448;10.228;2024-01-30T00:39:33;11.73;;;10.83;;
317;SDS011;146;53.448;10.228;2024-01-30T00:42:32;10.33;;;9.43;;
317;SDS011;146;53.448;10.228;2024-01-30T00:45:22;10.80;;;9.90;;
317;SDS011;146;53.448;10.228;2024-01-30T00:48:10;11.17;;;10.23;;
317;SDS011;146;53.448;10.228;2024-01-30T00:50:57;10.17;;;9.27;;
317;SDS011;146;53.448;10.228;2024-01-30T00:53:45;10.80;;;9.87;;
317;SDS011;146;53.448;10.228;2024-01-30T00:56:35;11.20;;;10.30;;
317;SDS011;146;53.448;10.228;2024-01-30T00:59:23;10.47;;;9.57;;
317;SDS011;146;53.448;10.228;2024-01-30T01:02:16;10.80;;;9.90;;
317;SDS011;146;53.448;10.228;2024-01-30T01:05:06;12.80;;;11.70;;
317;SDS011;146;53.448;10.228;2024-01-30T01:07:53;10.30;;;9.57;;
317;SDS011;146;53.448;10.228;2024-01-30T01:10:40;11.67;;;10.77;;
317;SDS011;146;53.448;10.228;2024-01-30T01:13:39;11.70;;;10.40;;
317;SDS011;146;53.448;10.228;2024-01-30T01:16:27;10.37;;;9.57;;
317;SDS011;146;53.448;10.228;2024-01-30T01:19:22;10.87;;;9.90;;
317;SDS011;146;53.448;10.228;2024-01-30T01:22:12;10.27;;;9.47;;
317;SDS011;146;53.448;10.228;2024-01-30T01:24:59;11.60;;;10.70;;
317;SDS011;146;53.448;10.228;2024-01-30T01:27:56;11.17;;;10.17;;
317;SDS011;146;53.448;10.228;2024-01-30T01:30:48;10.60;;;9.80;;
317;SDS011;146;53.448;10.228;2024-01-30T01:33:38;12.57;;;11.57;;
317;SDS011;146;53.448;10.228;2024-01-30T01:36:25;10.60;;;9.70;;
317;SDS011;146;53.448;10.228;2024-01-30T01:39:12;10.50;;;9.70;;
317;SDS011;146;53.448;10.228;2024-01-30T01:42:05;10.40;;;9.57;;
317;SDS011;146;53.448;10.228;2024-01-30T01:44:55;9.57;;;8.80;;
317;SDS011;146;53.448;10.228;2024-01-30T01:50:51;10.60;;;9.80;;
317;SDS011;146;53.448;10.228;2024-01-30T01:53:39;10.10;;;9.30;;
317;SDS011;146;53.448;10.228;2024-01-30T01:56:26;11.67;;;10.57;;
317;SDS011;146;53.448;10.228;2024-01-30T01:59:17;10.57;;;9.67;;
317;SDS011;146;53.448;10.228;2024-01-30T02:02:06;10.50;;;9.70;;
317;SDS011;146;53.448;10.228;2024-01-30T02:05:05;11.00;;;10.10;;
317;SDS011;146;53.448;10.228;2024-01-30T02:07:52;11.53;;;10.63;;
317;SDS011;146;53.448;10.228;2024-01-30T02:10:46;10.30;;;9.50;;
317;SDS011;146;53.448;10.228;2024-01-30T02:13:35;10.47;;;9.57;;
317;SDS011;146;53.448;10.228;2024-01-30T02:16:22;10.07;;;9.17;;
317;SDS011;146;53.448;10.228;2024-01-30T02:19:26;10.07;;;9.17;;
317;SDS011;146;53.448;10.228;2024-01-30T02:22:14;10.23;;;9.33;;
317;SDS011;146;53.448;10.228;2024-01-30T02:25:02;10.23;;;9.53;;
317;SDS011;146;53.448;10.228;2024-01-30T02:27:52;11.43;;;10.57;;
317;SDS011;146;53.448;10.228;2024-01-30T02:30:48;11.60;;;10.60;;
317;SDS011;146;53.448;10.228;2024-01-30T02:33:41;11.77;;;10.70;;
317;SDS011;146;53.448;10.228;2024-01-30T02:36:35;12.30;;;11.30;;
317;SDS011;146;53.448;10.228;2024-01-30T02:39:25;10.73;;;9.93;;
317;SDS011;146;53.448;10.228;2024-01-30T02:42:12;11.93;;;10.83;;
317;SDS011;146;53.448;10.228;2024-01-30T02:45:05;10.70;;;9.70;;
317;SDS011;146;53.448;10.228;2024-01-30T02:47:56;11.60;;;10.67;;
317;SDS011;146;53.448;10.228;2024-01-30T02:50:43;12.93;;;11.67;;
317;SDS011;146;53.448;10.228;2024-01-30T02:53:34;12.03;;;11.03;;
317;SDS011;146;53.448;10.228;2024-01-30T02:56:25;11.23;;;10.33;;
317;SDS011;146;53.448;10.228;2024-01-30T02:59:12;12.07;;;10.97;;
317;SDS011;146;53.448;10.228;2024-01-30T03:02:05;11.53;;;10.63;;
317;SDS011;146;53.448;10.228;2024-01-30T03:04:55;11.60;;;10.60;;
317;SDS011;146;53.448;10.228;2024-01-30T03:07:48;12.73;;;11.57;;
317;SDS011;146;53.448;10.228;2024-01-30T03:10:36;13.50;;;12.43;;
317;SDS011;146;53.448;10.228;2024-01-30T03:13:30;12.47;;;11.37;;
317;SDS011;146;53.448;10.228;2024-01-30T03:16:17;11.37;;;10.47;;
317;SDS011;146;53.448;10.228;2024-01-30T03:19:15;12.30;;;11.30;;
317;SDS011;146;53.448;10.228;2024-01-30T03:22:02;12.27;;;11.37;;
317;SDS011;146;53.448;10.228;2024-01-30T03:24:49;12.20;;;11.07;;
317;SDS011;146;53.448;10.228;2024-01-30T03:27:43;12.80;;;11.70;;
317;SDS011;146;53.448;10.228;2024-01-30T03:30:34;12.97;;;11.87;;
317;SDS011;146;53.448;10.228;2024-01-30T03:33:24;12.07;;;10.97;;
317;SDS011;146;53.448;10.228;2024-01-30T03:36:11;12.00;;;11.00;;
317;SDS011;146;53.448;10.228;2024-01-30T03:39:01;13.67;;;12.37;;
317;SDS011;146;53.448;10.228;2024-01-30T03:41:48;13.63;;;12.33;;
317;SDS011;146;53.448;10.228;2024-01-30T03:44:38;13.73;;;12.57;;
317;SDS011;146;53.448;10.228;2024-01-30T03:47:44;13.00;;;11.90;;
317;SDS011;146;53.448;10.228;2024-01-30T03:50:34;13.90;;;12.70;;
317;SDS011;146;53.448;10.228;2024-01-30T03:53:21;12.93;;;11.93;;
317;SDS011;146;53.448;10.228;2024-01-30T03:56:09;12.80;;;11.70;;
317;SDS011;146;53.448;10.228;2024-01-30T03:58:56;13.23;;;12.13;;
317;SDS011;146;53.448;10.228;2024-01-30T04:01:46;13.63;;;12.43;;
317;SDS011;146;53.448;10.228;2024-01-30T04:04:34;13.80;;;12.60;;
317;SDS011;146;53.448;10.228;2024-01-30T04:07:22;14.43;;;13.13;;
317;SDS011;146;53.448;10.228;2024-01-30T04:10:14;13.73;;;12.70;;
317;SDS011;146;53.448;10.228;2024-01-30T04:13:01;13.20;;;12.10;;
317;SDS011;146;53.448;10.228;2024-01-30T04:15:48;12.90;;;11.80;;
317;SDS011;146;53.448;10.228;2024-01-30T04:18:38;13.63;;;12.50;;
317;SDS011;146;53.448;10.228;2024-01-30T04:21:30;14.13;;;12.63;;
317;SDS011;146;53.448;10.228;2024-01-30T04:24:17;13.47;;;12.37;;
317;SDS011;146;53.448;10.228;2024-01-30T04:27:07;13.63;;;12.43;;
317;SDS011;146;53.448;10.228;2024-01-30T04:29:57;14.10;;;12.90;;
317;SDS011;146;53.448;10.228;2024-01-30T04:32:53;15.27;;;13.93;;
317;SDS011;146;53.448;10.228;2024-01-30T04:35:46;14.77;;;13.37;;
317;SDS011;146;53.448;10.228;2024-01-30T04:38:43;13.70;;;12.47;;
317;SDS011;146;53.448;10.228;2024-01-30T04:41:35;14.43;;;13.23;;
317;SDS011;146;53.448;10.228;2024-01-30T04:44:25;14.17;;;12.97;;
317;SDS011;146;53.448;10.228;2024-01-30T04:47:19;14.13;;;12.83;;
317;SDS011;146;53.448;10.228;2024-01-30T04:50:15;13.30;;;12.10;;
317;SDS011;146;53.448;10.228;2024-01-30T04:53:08;13.03;;;11.87;;
317;SDS011;146;53.448;10.228;2024-01-30T04:56:09;13.50;;;12.37;;
317;SDS011;146;53.448;10.228;2024-01-30T04:59:01;13.83;;;12.63;;
317;SDS011;146;53.448;10.228;2024-01-30T05:01:55;14.77;;;13.43;;
317;SDS011;146;53.448;10.228;2024-01-30T05:04:47;14.37;;;13.07;;
317;SDS011;146;53.448;10.228;2024-01-30T05:07:34;13.87;;;12.67;;
317;SDS011;146;53.448;10.228;2024-01-30T05:10:23;14.70;;;13.40;;
317;SDS011;146;53.448;10.228;2024-01-30T05:13:11;14.57;;;13.17;;
317;SDS011;146;53.448;10.228;2024-01-30T05:16:02;15.30;;;14.00;;
317;SDS011;146;53.448;10.228;2024-01-30T05:18:49;15.03;;;13.77;;
317;SDS011;146;53.448;10.228;2024-01-30T05:21:36;14.53;;;13.33;;
317;SDS011;146;53.448;10.228;2024-01-30T05:24:23;16.37;;;14.97;;
317;SDS011;146;53.448;10.228;2024-01-30T05:27:13;15.40;;;14.20;;
317;SDS011;146;53.448;10.228;2024-01-30T05:30:02;15.90;;;14.53;;
317;SDS011;146;53.448;10.228;2024-01-30T05:32:52;15.80;;;14.50;;
317;SDS011;146;53.448;10.228;2024-01-30T05:35:43;17.40;;;16.00;;
317;SDS011;146;53.448;10.228;2024-01-30T05:38:36;15.70;;;14.40;;
317;SDS011;146;53.448;10.228;2024-01-30T05:41:23;17.43;;;15.10;;
317;SDS011;146;53.448;10.228;2024-01-30T05:44:13;16.30;;;14.80;;
317;SDS011;146;53.448;10.228;2024-01-30T05:47:07;16.50;;;15.10;;
317;SDS011;146;53.448;10.228;2024-01-30T05:49:54;14.50;;;13.33;;
317;SDS011;146;53.448;10.228;2024-01-30T05:52:44;14.47;;;13.33;;
317;SDS011;146;53.448;10.228;2024-01-30T05:55:34;16.40;;;15.00;;
317;SDS011;146;53.448;10.228;2024-01-30T05:58:24;14.93;;;13.70;;
317;SDS011;146;53.448;10.228;2024-01-30T06:01:11;15.53;;;13.93;;
317;SDS011;146;53.448;10.228;2024-01-30T06:04:02;16.87;;;15.37;;
317;SDS011;146;53.448;10.228;2024-01-30T06:06:50;16.13;;;14.67;;
317;SDS011;146;53.448;10.228;2024-01-30T06:09:37;16.77;;;15.37;;
317;SDS011;146;53.448;10.228;2024-01-30T06:12:30;15.90;;;14.37;;
317;SDS011;146;53.448;10.228;2024-01-30T06:15:26;15.03;;;13.73;;
317;SDS011;146;53.448;10.228;2024-01-30T06:18:27;17.30;;;15.70;;
317;SDS011;146;53.448;10.228;2024-01-30T06:21:20;17.90;;;16.30;;
317;SDS011;146;53.448;10.228;2024-01-30T06:24:07;15.37;;;14.07;;
317;SDS011;146;53.448;10.228;2024-01-30T06:26:54;16.50;;;15.00;;
317;SDS011;146;53.448;10.228;2024-01-30T06:29:53;15.97;;;14.60;;
317;SDS011;146;53.448;10.228;2024-01-30T06:32:41;17.43;;;15.43;;
317;SDS011;146;53.448;10.228;2024-01-30T06:35:31;16.87;;;15.47;;
317;SDS011;146;53.448;10.228;2024-01-30T06:38:22;17.43;;;15.83;;
317;SDS011;146;53.448;10.228;2024-01-30T06:41:09;18.00;;;16.40;;
317;SDS011;146;53.448;10.228;2024-01-30T06:43:56;16.33;;;14.80;;
317;SDS011;146;53.448;10.228;2024-01-30T06:46:43;17.43;;;15.93;;
317;SDS011;146;53.448;10.228;2024-01-30T06:49:30;17.70;;;16.10;;
317;SDS011;146;53.448;10.228;2024-01-30T06:52:20;17.57;;;16.00;;
317;SDS011;146;53.448;10.228;2024-01-30T06:55:12;18.47;;;16.67;;
317;SDS011;146;53.448;10.228;2024-01-30T06:58:01;18.07;;;16.47;;
317;SDS011;146;53.448;10.228;2024-01-30T07:00:52;17.77;;;16.17;;
317;SDS011;146;53.448;10.228;2024-01-30T07:06:47;18.60;;;16.90;;
317;SDS011;146;53.448;10.228;2024-01-30T07:09:35;19.77;;;17.97;;
317;SDS011;146;53.448;10.228;2024-01-30T07:12:23;18.20;;;16.60;;
317;SDS011;146;53.448;10.228;2024-01-30T07:15:11;18.80;;;17.13;;
317;SDS011;146;53.448;10.228;2024-01-30T07:18:01;18.30;;;16.70;;
317;SDS011;146;53.448;10.228;2024-01-30T07:20:50;19.83;;;18.13;;
317;SDS011;146;53.448;10.228;2024-01-30T07:23:40;19.63;;;17.53;;
317;SDS011;146;53.448;10.228;2024-01-30T07:26:27;18.80;;;17.10;;
317;SDS011;146;53.448;10.228;2024-01-30T07:29:18;19.30;;;17.43;;
317;SDS011;146;53.448;10.228;2024-01-30T07:32:08;18.40;;;16.80;;
317;SDS011;146;53.448;10.228;2024-01-30T07:35:01;18.47;;;16.77;;
317;SDS011;146;53.448;10.228;2024-01-30T07:37:55;20.53;;;18.53;;
317;SDS011;146;53.448;10.228;2024-01-30T07:40:45;21.83;;;19.60;;
317;SDS011;146;53.448;10.228;2024-01-30T07:43:39;19.77;;;18.10;;
317;SDS011;146;53.448;10.228;2024-01-30T07:46:30;19.00;;;17.30;;
317;SDS011;146;53.448;10.228;2024-01-30T07:49:17;19.33;;;17.53;;
317;SDS011;146;53.448;10.228;2024-01-30T07:52:10;17.70;;;16.10;;
317;SDS011;146;53.448;10.228;2024-01-30T07:55:04;17.70;;;16.10;;
317;SDS011;146;53.448;10.228;2024-01-30T07:57:58;17.00;;;15.60;;
317;SDS011;146;53.448;10.228;2024-01-30T08:00:45;17.40;;;15.80;;
317;SDS011;146;53.448;10.228;2024-01-30T08:03:41;18.47;;;16.80;;
317;SDS011;146;53.448;10.228;2024-01-30T08:06:28;18.57;;;16.70;;
317;SDS011;146;53.448;10.228;2024-01-30T08:09:18;17.50;;;15.70;;
317;SDS011;146;53.448;10.228;2024-01-30T08:12:05;17.87;;;16.27;;
317;SDS011;146;53.448;10.228;2024-01-30T08:14:55;18.53;;;16.83;;
317;SDS011;146;53.448;10.228;2024-01-30T08:17:47;18.60;;;16.90;;
317;SDS011;146;53.448;10.228;2024-01-30T08:20:37;18.27;;;16.57;;
317;SDS011;146;53.448;10.228;2024-01-30T08:23:30;19.33;;;17.63;;
317;SDS011;146;53.448;10.228;2024-01-30T08:26:20;18.70;;;17.00;;
317;SDS011;146;53.448;10.228;2024-01-30T08:29:10;17.63;;;16.20;;
317;SDS011;146;53.448;10.228;2024-01-30T08:31:57;18.40;;;16.60;;
317;SDS011;146;53.448;10.228;2024-01-30T08:34:53;19.43;;;17.63;;
317;SDS011;146;53.448;10.228;2024-01-30T08:37:45;18.50;;;16.70;;
317;SDS011;146;53.448;10.228;2024-01-30T08:40:32;18.80;;;17.13;;
317;SDS011;146;53.448;10.228;2024-01-30T08:43:22;20.23;;;18.30;;
317;SDS011;146;53.448;10.228;2024-01-30T08:46:09;18.17;;;16.50;;
317;SDS011;146;53.448;10.228;2024-01-30T08:49:03;18.53;;;16.83;;
317;SDS011;146;53.448;10.228;2024-01-30T08:51:50;18.80;;;17.10;;
317;SDS011;146;53.448;10.228;2024-01-30T08:54:39;19.23;;;17.43;;
317;SDS011;146;53.448;10.228;2024-01-30T08:57:26;20.33;;;18.37;;
317;SDS011;146;53.448;10.228;2024-01-30T09:03:11;18.63;;;16.83;;
317;SDS011;146;53.448;10.228;2024-01-30T09:05:58;18.93;;;17.17;;
317;SDS011;146;53.448;10.228;2024-01-30T09:08:48;16.50;;;15.07;;
317;SDS011;146;53.448;10.228;2024-01-30T09:11:47;19.17;;;17.37;;
317;SDS011;146;53.448;10.228;2024-01-30T09:14:43;17.17;;;15.57;;
317;SDS011;146;53.448;10.228;2024-01-30T09:17:30;20.10;;;18.30;;
317;SDS011;146;53.448;10.228;2024-01-30T09:20:20;21.40;;;19.30;;
317;SDS011;146;53.448;10.228;2024-01-30T09:23:08;19.37;;;17.60;;
317;SDS011;146;53.448;10.228;2024-01-30T09:25:56;18.97;;;17.00;;
317;SDS011;146;53.448;10.228;2024-01-30T09:31:54;23.50;;;21.20;;
317;SDS011;146;53.448;10.228;2024-01-30T09:34:41;21.93;;;20.03;;
317;SDS011;146;53.448;10.228;2024-01-30T09:37:32;20.30;;;18.40;;
317;SDS011;146;53.448;10.228;2024-01-30T09:40:31;19.20;;;17.50;;
317;SDS011;146;53.448;10.228;2024-01-30T09:43:27;17.80;;;16.20;;
317;SDS011;146;53.448;10.228;2024-01-30T09:46:32;17.47;;;15.97;;
317;SDS011;146;53.448;10.228;2024-01-30T09:49:24;17.53;;;15.87;;
317;SDS011;146;53.448;10.228;2024-01-30T09:52:26;16.60;;;15.20;;
317;SDS011;146;53.448;10.228;2024-01-30T09:55:16;17.40;;;15.63;;
317;SDS011;146;53.448;10.228;2024-01-30T09:58:06;17.60;;;16.00;;
317;SDS011;146;53.448;10.228;2024-01-30T10:00:53;17.20;;;15.60;;
317;SDS011;146;53.448;10.228;2024-01-30T10:03:45;18.23;;;16.53;;
317;SDS011;146;53.448;10.228;2024-01-30T10:06:35;16.07;;;14.50;;
317;SDS011;146;53.448;10.228;2024-01-30T10:09:25;18.23;;;16.43;;
317;SDS011;146;53.448;10.228;2024-01-30T10:12:15;16.17;;;14.77;;
317;SDS011;146;53.448;10.228;2024-01-30T10:15:06;21.47;;;19.57;;
317;SDS011;146;53.448;10.228;2024-01-30T10:17:54;21.07;;;19.03;;
317;SDS011;146;53.448;10.228;2024-01-30T10:20:49;31.30;;;23.50;;
317;SDS011;146;53.448;10.228;2024-01-30T10:23:36;36.97;;;29.50;;
317;SDS011;146;53.448;10.228;2024-01-30T10:26:32;34.20;;;25.10;;
317;SDS011;146;53.448;10.228;2024-01-30T10:29:27;62.97;;;34.97;;
317;SDS011;146;53.448;10.228;2024-01-30T10:32:20;39.60;;;26.77;;
317;SDS011;146;53.448;10.228;2024-01-30T10:35:10;41.53;;;26.03;;
317;SDS011;146;53.448;10.228;2024-01-30T10:38:00;29.87;;;22.57;;
317;SDS011;146;53.448;10.228;2024-01-30T10:40:50;20.30;;;18.10;;
317;SDS011;146;53.448;10.228;2024-01-30T10:43:47;17.73;;;16.10;;
317;SDS011;146;53.448;10.228;2024-01-30T10:47:00;17.37;;;15.87;;
317;SDS011;146;53.448;10.228;2024-01-30T10:50:05;18.00;;;16.60;;
317;SDS011;146;53.448;10.228;2024-01-30T10:53:06;16.37;;;14.97;;
317;SDS011;146;53.448;10.228;2024-01-30T10:55:58;18.10;;;16.50;;
317;SDS011;146;53.448;10.228;2024-01-30T10:58:49;17.87;;;16.07;;
317;SDS011;146;53.448;10.228;2024-01-30T11:01:40;17.47;;;15.97;;
317;SDS011;146;53.448;10.228;2024-01-30T11:04:35;16.27;;;14.63;;
317;SDS011;146;53.448;10.228;2024-01-30T11:07:26;16.83;;;15.03;;
317;SDS011;146;53.448;10.228;2024-01-30T11:10:15;15.83;;;14.50;;
317;SDS011;146;53.448;10.228;2024-01-30T11:13:09;15.07;;;13.63;;
317;SDS011;146;53.448;10.228;2024-01-30T11:15:59;15.97;;;14.47;;
317;SDS011;146;53.448;10.228;2024-01-30T11:18:49;15.77;;;14.17;;
317;SDS011;146;53.448;10.228;2024-01-30T11:21:40;21.67;;;18.07;;
317;SDS011;146;53.448;10.228;2024-01-30T11:24:28;18.23;;;16.23;;
317;SDS011;146;53.448;10.228;2024-01-30T11:27:32;14.00;;;12.80;;
317;SDS011;146;53.448;10.228;2024-01-30T11:30:23;14.53;;;13.20;;
317;SDS011;146;53.448;10.228;2024-01-30T11:33:11;14.77;;;13.27;;
317;SDS011;146;53.448;10.228;2024-01-30T11:36:00;15.30;;;13.70;;
317;SDS011;146;53.448;10.228;2024-01-30T11:38:48;14.30;;;13.03;;
317;SDS011;146;53.448;10.228;2024-01-30T11:41:36;12.97;;;11.90;;
317;SDS011;146;53.448;10.228;2024-01-30T11:44:29;13.50;;;12.30;;
317;SDS011;146;53.448;10.228;2024-01-30T11:47:16;11.97;;;10.90;;
317;SDS011;146;53.448;10.228;2024-01-30T11:50:06;13.67;;;12.50;;
317;SDS011;146;53.448;10.228;2024-01-30T11:52:56;14.23;;;12.83;;
317;SDS011;146;53.448;10.228;2024-01-30T11:55:49;13.83;;;12.57;;
317;SDS011;146;53.448;10.228;2024-01-30T11:58:42;12.37;;;11.17;;
317;SDS011;146;53.448;10.228;2024-01-30T12:01:33;14.57;;;13.33;;
317;SDS011;146;53.448;10.228;2024-01-30T12:04:20;13.13;;;11.93;;
317;SDS011;146;53.448;10.228;2024-01-30T12:07:07;13.00;;;11.90;;
317;SDS011;146;53.448;10.228;2024-01-30T12:09:57;11.73;;;10.73;;
317;SDS011;146;53.448;10.228;2024-01-30T12:12:45;12.40;;;11.20;;
317;SDS011;146;53.448;10.228;2024-01-30T12:15:33;12.40;;;11.30;;
317;SDS011;146;53.448;10.228;2024-01-30T12:18:22;13.07;;;11.97;;
317;SDS011;146;53.448;10.228;2024-01-30T12:21:09;13.00;;;12.00;;
317;SDS011;146;53.448;10.228;2024-01-30T12:23:56;13.63;;;12.30;;
317;SDS011;146;53.448;10.228;2024-01-30T12:26:44;11.60;;;10.60;;
317;SDS011;146;53.448;10.228;2024-01-30T12:29:41;13.23;;;11.10;;
317;SDS011;146;53.448;10.228;2024-01-30T12:32:28;14.27;;;12.97;;
317;SDS011;146;53.448;10.228;2024-01-30T12:35:23;11.63;;;10.63;;
317;SDS011;146;53.448;10.228;2024-01-30T12:38:10;12.90;;;11.77;;
317;SDS011;146;53.448;10.228;2024-01-30T12:41:01;12.70;;;11.60;;
317;SDS011;146;53.448;10.228;2024-01-30T12:43:48;15.23;;;13.67;;
317;SDS011;146;53.448;10.228;2024-01-30T12:46:35;13.07;;;11.93;;
317;SDS011;146;53.448;10.228;2024-01-30T12:49:33;13.90;;;12.37;;
317;SDS011;146;53.448;10.228;2024-01-30T12:52:21;17.07;;;15.77;;
317;SDS011;146;53.448;10.228;2024-01-30T12:55:12;14.00;;;12.70;;
317;SDS011;146;53.448;10.228;2024-01-30T12:58:01;13.90;;;12.43;;
317;SDS011;146;53.448;10.228;2024-01-30T13:00:54;14.20;;;12.87;;
317;SDS011;146;53.448;10.228;2024-01-30T13:03:44;14.53;;;13.13;;
317;SDS011;146;53.448;10.228;2024-01-30T13:06:34;14.13;;;12.23;;
317;SDS011;146;53.448;10.228;2024-01-30T13:09:23;16.40;;;15.00;;
317;SDS011;146;53.448;10.228;2024-01-30T13:12:10;15.20;;;13.93;;
317;SDS011;146;53.448;10.228;2024-01-30T13:14:58;14.70;;;13.40;;
317;SDS011;146;53.448;10.228;2024-01-30T13:17:46;16.00;;;14.33;;
317;SDS011;146;53.448;10.228;2024-01-30T13:20:34;13.97;;;12.67;;
317;SDS011;146;53.448;10.228;2024-01-30T13:23:21;12.23;;;11.13;;
317;SDS011;146;53.448;10.228;2024-01-30T13:26:15;12.77;;;10.87;;
317;SDS011;146;53.448;10.228;2024-01-30T13:29:02;11.77;;;10.63;;
317;SDS011;146;53.448;10.228;2024-01-30T13:31:49;11.97;;;10.87;;
317;SDS011;146;53.448;10.228;2024-01-30T13:34:39;10.97;;;9.93;;
317;SDS011;146;53.448;10.228;2024-01-30T13:37:29;15.17;;;13.73;;
317;SDS011;146;53.448;10.228;2024-01-30T13:40:19;11.30;;;10.40;;
317;SDS011;146;53.448;10.228;2024-01-30T13:43:13;11.70;;;10.53;;
317;SDS011;146;53.448;10.228;2024-01-30T13:46:07;10.40;;;9.53;;
317;SDS011;146;53.448;10.228;2024-01-30T13:48:55;11.70;;;10.50;;
317;SDS011;146;53.448;10.228;2024-01-30T13:51:42;13.87;;;11.20;;
317;SDS011;146;53.448;10.228;2024-01-30T13:54:32;14.90;;;13.63;;
317;SDS011;146;53.448;10.228;2024-01-30T13:57:24;12.00;;;10.93;;
317;SDS011;146;53.448;10.228;2024-01-30T14:00:22;12.23;;;11.17;;
317;SDS011;146;53.448;10.228;2024-01-30T14:03:20;17.37;;;13.70;;
317;SDS011;146;53.448;10.228;2024-01-30T14:06:10;14.60;;;13.10;;
317;SDS011;146;53.448;10.228;2024-01-30T14:08:57;13.20;;;11.60;;
317;SDS011;146;53.448;10.228;2024-01-30T14:11:50;12.10;;;11.10;;
317;SDS011;146;53.448;10.228;2024-01-30T14:14:41;12.57;;;11.47;;
317;SDS011;146;53.448;10.228;2024-01-30T14:17:38;12.07;;;10.80;;
317;SDS011;146;53.448;10.228;2024-01-30T14:20:25;13.00;;;11.63;;
317;SDS011;146;53.448;10.228;2024-01-30T14:23:16;16.40;;;13.67;;
317;SDS011;146;53.448;10.228;2024-01-30T14:26:06;17.80;;;13.90;;
317;SDS011;146;53.448;10.228;2024-01-30T14:28:55;18.30;;;15.60;;
317;SDS011;146;53.448;10.228;2024-01-30T14:31:46;19.30;;;14.20;;
317;SDS011;146;53.448;10.228;2024-01-30T14:34:34;22.87;;;17.00;;
317;SDS011;146;53.448;10.228;2024-01-30T14:37:21;37.63;;;22.97;;
317;SDS011;146;53.448;10.228;2024-01-30T14:40:09;44.23;;;29.20;;
317;SDS011;146;53.448;10.228;2024-01-30T14:42:56;23.50;;;20.50;;
317;SDS011;146;53.448;10.228;2024-01-30T14:45:44;17.10;;;15.40;;
317;SDS011;146;53.448;10.228;2024-01-30T14:48:34;12.77;;;11.60;;
317;SDS011;146;53.448;10.228;2024-01-30T14:51:22;12.80;;;11.50;;
317;SDS011;146;53.448;10.228;2024-01-30T14:54:10;12.13;;;10.97;;
317;SDS011;146;53.448;10.228;2024-01-30T14:56:57;12.43;;;11.43;;
317;SDS011;146;53.448;10.228;2024-01-30T14:59:49;17.83;;;16.13;;
317;SDS011;146;53.448;10.228;2024-01-30T15:02:36;13.27;;;12.03;;
317;SDS011;146;53.448;10.228;2024-01-30T15:05:28;11.90;;;10.70;;
317;SDS011;146;53.448;10.228;2024-01-30T15:08:19;13.27;;;12.10;;
317;SDS011;146;53.448;10.228;2024-01-30T15:11:10;14.20;;;12.80;;
317;SDS011;146;53.448;10.228;2024-01-30T15:13:57;15.47;;;14.17;;
317;SDS011;146;53.448;10.228;2024-01-30T15:16:50;16.63;;;15.23;;
317;SDS011;146;53.448;10.228;2024-01-30T15:19:41;14.00;;;12.70;;
317;SDS011;146;53.448;10.228;2024-01-30T15:22:34;12.73;;;11.53;;
317;SDS011;146;53.448;10.228;2024-01-30T15:25:22;13.10;;;11.90;;
317;SDS011;146;53.448;10.228;2024-01-30T15:28:11;12.60;;;11.47;;
317;SDS011;146;53.448;10.228;2024-01-30T15:31:00;17.83;;;11.60;;
317;SDS011;146;53.448;10.228;2024-01-30T15:33:50;12.77;;;11.30;;
317;SDS011;146;53.448;10.228;2024-01-30T15:36:37;13.67;;;12.37;;
317;SDS011;146;53.448;10.228;2024-01-30T15:39:24;13.23;;;12.13;;
317;SDS011;146;53.448;10.228;2024-01-30T15:42:18;14.17;;;12.73;;
317;SDS011;146;53.448;10.228;2024-01-30T15:45:07;14.40;;;12.90;;
317;SDS011;146;53.448;10.228;2024-01-30T15:47:59;14.50;;;13.03;;
317;SDS011;146;53.448;10.228;2024-01-30T15:50:50;15.50;;;14.20;;
317;SDS011;146;53.448;10.228;2024-01-30T15:53:49;13.13;;;12.03;;
317;SDS011;146;53.448;10.228;2024-01-30T15:56:37;13.27;;;11.97;;
317;SDS011;146;53.448;10.228;2024-01-30T15:59:35;18.83;;;14.70;;
317;SDS011;146;53.448;10.228;2024-01-30T16:02:23;12.30;;;11.10;;
317;SDS011;146;53.448;10.228;2024-01-30T16:05:10;14.50;;;13.00;;
317;SDS011;146;53.448;10.228;2024-01-30T16:07:57;12.20;;;11.10;;
317;SDS011;146;53.448;10.228;2024-01-30T16:10:45;14.30;;;13.00;;
317;SDS011;146;53.448;10.228;2024-01-30T16:13:41;12.67;;;11.57;;
317;SDS011;146;53.448;10.228;2024-01-30T16:16:30;14.40;;;13.10;;
317;SDS011;146;53.448;10.228;2024-01-30T16:19:20;14.93;;;13.60;;
317;SDS011;146;53.448;10.228;2024-01-30T16:22:11;13.93;;;12.53;;
317;SDS011;146;53.448;10.228;2024-01-30T16:25:04;13.37;;;12.07;;
317;SDS011;146;53.448;10.228;2024-01-30T16:27:54;16.63;;;14.63;;
317;SDS011;146;53.448;10.228;2024-01-30T16:31:00;13.87;;;12.50;;
317;SDS011;146;53.448;10.228;2024-01-30T16:33:57;15.73;;;14.23;;
317;SDS011;146;53.448;10.228;2024-01-30T16:36:45;15.00;;;13.47;;
317;SDS011;146;53.448;10.228;2024-01-30T16:39:38;12.50;;;11.20;;
317;SDS011;146;53.448;10.228;2024-01-30T16:42:29;13.93;;;12.50;;
317;SDS011;146;53.448;10.228;2024-01-30T16:45:16;12.70;;;11.50;;
317;SDS011;146;53.448;10.228;2024-01-30T16:48:04;13.23;;;12.13;;
317;SDS011;146;53.448;10.228;2024-01-30T16:51:01;13.77;;;12.60;;
317;SDS011;146;53.448;10.228;2024-01-30T16:53:51;14.27;;;12.83;;
317;SDS011;146;53.448;10.228;2024-01-30T16:56:38;15.10;;;13.77;;
317;SDS011;146;53.448;10.228;2024-01-30T16:59:26;15.70;;;14.30;;
317;SDS011;146;53.448;10.228;2024-01-30T17:02:16;13.97;;;12.83;;
317;SDS011;146;53.448;10.228;2024-01-30T17:05:06;13.40;;;12.33;;
317;SDS011;146;53.448;10.228;2024-01-30T17:07:59;12.70;;;11.43;;
317;SDS011;146;53.448;10.228;2024-01-30T17:10:49;13.33;;;12.17;;
317;SDS011;146;53.448;10.228;2024-01-30T17:13:36;15.00;;;12.90;;
317;SDS011;146;53.448;10.228;2024-01-30T17:16:35;13.87;;;12.60;;
317;SDS011;146;53.448;10.228;2024-01-30T17:19:23;15.00;;;13.60;;
317;SDS011;146;53.448;10.228;2024-01-30T17:22:11;12.87;;;11.77;;
317;SDS011;146;53.448;10.228;2024-01-30T17:25:01;15.23;;;13.83;;
317;SDS011;146;53.448;10.228;2024-01-30T17:27:49;13.17;;;12.07;;
317;SDS011;146;53.448;10.228;2024-01-30T17:30:36;13.80;;;11.90;;
317;SDS011;146;53.448;10.228;2024-01-30T17:33:36;13.50;;;12.30;;
317;SDS011;146;53.448;10.228;2024-01-30T17:36:24;13.87;;;12.67;;
317;SDS011;146;53.448;10.228;2024-01-30T17:39:17;14.27;;;12.77;;